Time;durP1;ratioP1;P1;durP2;ratioP2;P2;SDS_P1;SDS_P2;PMS_P1;PMS_P2;Temp;Humidity;BMP_temperature;BMP_pressure;BME280_temperature;BME280_humidity;BME280_pressure;Samples;Min_cycle;Max_cycle;Signal;HPM_P1;HPM_P2
2021/01/24 00:01:46;;;;;;;27.92;20.33;;;3.30;99.90;;;;;;6244735;22;20019;-87
2021/01/24 00:04:11;;;;;;;28.83;20.27;;;3.20;99.90;;;;;;6271630;22;20041;-88
2021/01/24 00:06:37;;;;;;;28.30;19.00;;;3.20;99.90;;;;;;6244802;22;20003;-87
2021/01/24 00:09:03;;;;;;;29.83;20.40;;;3.30;99.90;;;;;;6244100;22;20014;-86
2021/01/24 00:11:29;;;;;;;30.77;20.88;;;3.30;99.90;;;;;;6243779;22;20082;-87
2021/01/24 00:13:54;;;;;;;30.35;20.75;;;3.30;99.90;;;;;;6244610;22;20046;-88
2021/01/24 00:16:20;;;;;;;35.47;22.88;;;3.30;99.90;;;;;;6244875;22;20103;-88
2021/01/24 00:18:45;;;;;;;31.38;21.33;;;3.30;99.90;;;;;;6272021;22;20004;-87
2021/01/24 00:21:11;;;;;;;31.33;21.33;;;3.30;99.90;;;;;;6244746;22;20082;-87
2021/01/24 00:23:36;;;;;;;33.03;20.85;;;3.30;99.90;;;;;;6271104;22;20425;-87
2021/01/24 00:26:02;;;;;;;28.67;20.30;;;3.30;99.90;;;;;;6271643;22;20429;-86
2021/01/24 00:28:27;;;;;;;28.15;19.23;;;3.30;99.90;;;;;;6243598;22;20050;-87
2021/01/24 00:30:53;;;;;;;37.17;20.85;;;3.30;99.90;;;;;;6244392;22;20037;-86
2021/01/24 00:33:18;;;;;;;29.40;20.27;;;3.30;99.90;;;;;;6244539;22;20042;-89
2021/01/24 00:35:44;;;;;;;26.20;19.25;;;3.20;99.90;;;;;;6243863;22;20050;-87
2021/01/24 00:38:11;;;;;;;28.60;18.42;;;3.20;99.90;;;;;;6244102;22;20087;-87
2021/01/24 00:40:36;;;;;;;27.85;19.17;;;3.20;99.90;;;;;;6244936;22;20007;-88
2021/01/24 00:43:02;;;;;;;30.33;19.20;;;3.10;99.90;;;;;;6245593;22;20061;-88
2021/01/24 00:45:27;;;;;;;30.48;20.30;;;3.10;99.90;;;;;;6273099;22;20011;-85
2021/01/24 00:47:53;;;;;;;28.92;18.83;;;3.10;99.90;;;;;;6272620;22;19999;-85
2021/01/24 00:50:19;;;;;;;28.90;19.73;;;3.10;99.90;;;;;;6245578;22;20101;-84
2021/01/24 00:52:44;;;;;;;26.48;17.77;;;3.10;99.90;;;;;;6245210;22;20012;-87
2021/01/24 00:55:10;;;;;;;28.08;18.67;;;3.10;99.90;;;;;;6246120;22;20054;-88
2021/01/24 00:57:36;;;;;;;24.52;17.25;;;3.10;99.90;;;;;;6245593;22;20008;-86
2021/01/24 01:00:05;;;;;;;27.17;17.50;;;3.10;99.90;;;;;;6272158;22;20018;-87
2021/01/24 01:02:31;;;;;;;26.25;18.40;;;3.10;99.90;;;;;;6272692;22;20008;-88
2021/01/24 01:04:56;;;;;;;23.38;16.35;;;3.10;99.90;;;;;;6246058;22;20018;-88
2021/01/24 01:07:22;;;;;;;28.75;16.48;;;3.10;99.90;;;;;;6273113;22;20008;-87
2021/01/24 01:09:48;;;;;;;23.85;15.80;;;3.10;99.90;;;;;;6244884;22;20085;-87
2021/01/24 01:12:14;;;;;;;21.45;14.65;;;3.00;99.90;;;;;;6245021;22;19995;-87
2021/01/24 01:14:39;;;;;;;23.27;14.02;;;3.00;99.90;;;;;;6246268;22;20053;-87
2021/01/24 01:17:05;;;;;;;20.70;14.27;;;3.10;99.90;;;;;;6245835;22;20004;-87
2021/01/24 01:19:30;;;;;;;19.10;12.40;;;3.10;99.90;;;;;;6245596;22;20061;-87
2021/01/24 01:21:56;;;;;;;22.13;12.30;;;3.10;99.90;;;;;;6245683;22;20666;-87
2021/01/24 01:24:22;;;;;;;20.77;13.07;;;3.10;99.90;;;;;;6245478;22;20089;-88
2021/01/24 01:26:47;;;;;;;17.50;12.18;;;3.00;99.90;;;;;;6219933;22;20014;-87
2021/01/24 01:29:13;;;;;;;16.80;11.00;;;3.00;99.90;;;;;;6245708;22;20023;-88
2021/01/24 01:31:38;;;;;;;17.15;10.23;;;3.00;99.90;;;;;;6273882;22;20006;-87
2021/01/24 01:34:04;;;;;;;16.67;10.38;;;3.00;99.90;;;;;;6247017;22;20095;-87
2021/01/24 01:36:30;;;;;;;17.75;11.52;;;3.00;99.90;;;;;;6246845;22;20000;-87
2021/01/24 01:38:57;;;;;;;17.45;11.82;;;3.00;99.90;;;;;;6247358;22;20430;-87
2021/01/24 01:41:31;;;;;;;15.57;10.73;;;3.00;99.90;;;;;;6246660;22;20022;-89
2021/01/24 01:43:57;;;;;;;22.00;12.68;;;3.00;99.90;;;;;;6247380;22;20026;-88
2021/01/24 01:46:26;;;;;;;19.70;12.02;;;3.00;99.90;;;;;;6247581;22;20022;-87
2021/01/24 01:48:52;;;;;;;21.27;12.40;;;3.00;99.90;;;;;;6247674;22;20065;-87
2021/01/24 01:51:18;;;;;;;20.75;12.05;;;3.00;99.90;;;;;;6247772;22;20004;-87
2021/01/24 01:53:44;;;;;;;22.25;13.55;;;3.00;99.90;;;;;;6246901;22;20494;-86
2021/01/24 01:56:11;;;;;;;19.75;12.48;;;2.90;99.90;;;;;;6246551;22;20012;-86
2021/01/24 01:58:37;;;;;;;24.90;12.27;;;2.90;99.90;;;;;;6245928;22;20042;-87
2021/01/24 02:01:07;;;;;;;17.60;11.43;;;2.90;99.90;;;;;;6246925;23;20450;-87
2021/01/24 02:03:55;;;;;;;17.00;11.60;;;2.90;99.90;;;;;;6248379;22;20012;-87
2021/01/24 02:06:33;;;;;;;17.35;10.63;;;2.90;99.90;;;;;;6238187;23;20010;-86
2021/01/24 02:08:59;;;;;;;20.05;11.93;;;2.90;99.90;;;;;;6250164;23;20020;-86
2021/01/24 02:12:04;;;;;;;20.92;10.88;;;2.90;99.90;;;;;;6254281;23;20019;-88
2021/01/24 02:14:42;;;;;;;14.98;8.73;;;2.90;99.90;;;;;;6255295;23;20004;-88
2021/01/24 02:17:12;;;;;;;18.88;9.95;;;2.90;99.90;;;;;;6252730;22;20008;-87
2021/01/24 02:20:03;;;;;;;16.58;9.18;;;2.90;99.90;;;;;;6248547;23;20027;-86
2021/01/24 02:22:34;;;;;;;17.08;9.38;;;2.90;99.90;;;;;;6247189;23;20008;-87
2021/01/24 02:25:06;;;;;;;15.40;9.68;;;2.80;99.90;;;;;;6246889;23;20399;-86
2021/01/24 02:27:45;;;;;;;15.52;9.70;;;2.80;99.90;;;;;;6246561;23;20005;-88
2021/01/24 02:30:24;;;;;;;13.45;8.93;;;2.80;99.90;;;;;;6247027;23;20016;-88
2021/01/24 02:32:58;;;;;;;14.15;8.20;;;2.80;99.90;;;;;;6246849;23;20087;-87
2021/01/24 02:35:28;;;;;;;15.82;8.38;;;2.80;99.90;;;;;;6246763;23;20073;-87
2021/01/24 02:37:55;;;;;;;15.60;8.80;;;2.80;99.90;;;;;;6246610;23;20011;-87
2021/01/24 02:40:21;;;;;;;13.90;7.70;;;2.80;99.90;;;;;;6246886;23;20000;-87
2021/01/24 02:42:49;;;;;;;13.85;7.15;;;2.80;99.90;;;;;;6247000;23;20397;-87
2021/01/24 02:45:17;;;;;;;15.30;8.05;;;2.80;99.90;;;;;;6248172;22;20342;-88
2021/01/24 02:47:43;;;;;;;12.98;8.50;;;2.80;99.90;;;;;;6247209;22;20007;-88
2021/01/24 02:50:09;;;;;;;13.52;7.80;;;2.80;99.90;;;;;;6246091;23;20004;-86
2021/01/24 02:52:36;;;;;;;14.63;7.55;;;2.80;99.90;;;;;;6247710;22;20004;-87
2021/01/24 02:55:04;;;;;;;14.65;7.35;;;2.80;99.90;;;;;;6246121;23;20501;-87
2021/01/24 02:57:30;;;;;;;11.27;6.63;;;2.80;99.90;;;;;;6246222;23;20007;-87
2021/01/24 02:59:56;;;;;;;12.93;7.55;;;2.80;99.90;;;;;;6246700;22;20008;-87
2021/01/24 03:02:21;;;;;;;11.43;6.57;;;2.80;99.90;;;;;;6250850;22;20052;-88
2021/01/24 03:04:47;;;;;;;9.57;6.28;;;2.80;99.90;;;;;;6250679;22;20412;-88
2021/01/24 03:07:13;;;;;;;10.27;6.45;;;2.80;99.90;;;;;;6250201;22;20029;-88
2021/01/24 03:09:38;;;;;;;10.30;6.18;;;2.80;99.90;;;;;;6278505;22;20000;-88
2021/01/24 03:12:06;;;;;;;9.45;5.80;;;2.80;99.90;;;;;;6278546;22;20003;-89
2021/01/24 03:14:33;;;;;;;11.82;6.03;;;2.90;99.90;;;;;;6251181;22;20023;-88
2021/01/24 03:17:02;;;;;;;9.95;6.22;;;2.90;99.90;;;;;;6251148;22;20513;-87
2021/01/24 03:19:29;;;;;;;13.05;6.93;;;2.90;99.90;;;;;;6251472;22;20007;-87
2021/01/24 03:21:57;;;;;;;9.88;5.75;;;2.90;99.90;;;;;;6250743;22;20156;-89
2021/01/24 03:24:23;;;;;;;10.23;6.35;;;2.90;99.90;;;;;;6251281;22;20067;-88
2021/01/24 03:26:50;;;;;;;11.07;6.68;;;3.00;99.90;;;;;;6251018;22;20002;-88
2021/01/24 03:29:16;;;;;;;12.35;6.90;;;3.00;99.90;;;;;;6278600;22;20014;-88
2021/01/24 03:31:46;;;;;;;11.23;6.22;;;3.00;99.90;;;;;;6251056;22;20025;-89
2021/01/24 03:34:19;;;;;;;13.02;7.72;;;3.00;99.90;;;;;;6251289;22;20019;-88
2021/01/24 03:36:46;;;;;;;12.33;7.10;;;3.00;99.90;;;;;;6278260;22;20066;-88
2021/01/24 03:39:12;;;;;;;13.10;7.18;;;3.00;99.90;;;;;;6251638;22;20427;-88
2021/01/24 03:41:37;;;;;;;15.13;8.70;;;3.00;99.90;;;;;;6251304;22;20007;-89
2021/01/24 03:44:03;;;;;;;17.55;10.32;;;3.00;99.90;;;;;;6278760;22;20015;-89
2021/01/24 03:46:29;;;;;;;15.68;9.77;;;3.00;99.90;;;;;;6251790;22;20053;-88
2021/01/24 03:48:55;;;;;;;17.48;10.02;;;2.90;99.90;;;;;;6251274;22;20010;-89
2021/01/24 03:51:21;;;;;;;17.33;10.07;;;2.90;99.90;;;;;;6278802;22;19995;-88
2021/01/24 03:53:46;;;;;;;14.68;8.88;;;3.00;99.90;;;;;;6251209;22;20010;-88
2021/01/24 03:56:12;;;;;;;15.13;9.35;;;2.90;99.90;;;;;;6251438;22;20004;-88
2021/01/24 03:58:40;;;;;;;14.77;8.80;;;2.90;99.90;;;;;;6250979;22;19996;-89
2021/01/24 04:01:06;;;;;;;18.05;9.65;;;2.90;99.90;;;;;;6250962;22;20442;-87
2021/01/24 04:03:31;;;;;;;16.25;8.77;;;2.90;99.90;;;;;;6250677;22;20014;-88
2021/01/24 04:05:57;;;;;;;14.25;8.73;;;2.90;99.90;;;;;;6251485;22;20035;-87
2021/01/24 04:08:22;;;;;;;14.00;9.02;;;2.90;99.90;;;;;;6251185;22;20030;-88
2021/01/24 04:10:48;;;;;;;14.00;9.02;;;2.90;99.90;;;;;;6250936;22;20008;-87
2021/01/24 04:13:13;;;;;;;14.40;8.65;;;2.90;99.90;;;;;;6251357;22;20004;-87
2021/01/24 04:15:39;;;;;;;16.02;9.27;;;2.90;99.90;;;;;;6250952;22;20015;-88
2021/01/24 04:18:05;;;;;;;14.63;9.40;;;2.90;99.90;;;;;;6251034;22;20315;-88
2021/01/24 04:20:30;;;;;;;16.42;8.68;;;2.90;99.90;;;;;;6278237;22;20381;-88
2021/01/24 04:22:56;;;;;;;13.80;8.35;;;2.90;99.90;;;;;;6250448;22;20000;-88
2021/01/24 04:25:23;;;;;;;14.48;8.63;;;2.90;99.90;;;;;;6250440;22;20022;-88
2021/01/24 04:27:49;;;;;;;16.77;9.35;;;2.90;99.90;;;;;;6278184;22;20003;-88
2021/01/24 04:30:15;;;;;;;16.33;9.45;;;2.90;99.90;;;;;;6251266;22;20007;-88
2021/01/24 04:32:41;;;;;;;16.33;9.88;;;2.90;99.90;;;;;;6250664;22;20000;-87
2021/01/24 04:35:07;;;;;;;16.63;9.45;;;2.90;99.90;;;;;;6250776;22;20077;-88
2021/01/24 04:37:33;;;;;;;18.27;10.48;;;2.90;99.90;;;;;;6250556;22;20011;-87
2021/01/24 04:39:59;;;;;;;15.32;9.25;;;2.90;99.90;;;;;;6251296;22;19999;-88
2021/01/24 04:42:24;;;;;;;16.17;9.90;;;2.80;99.90;;;;;;6251299;22;20078;-86
2021/01/24 04:44:51;;;;;;;16.38;9.48;;;2.80;99.90;;;;;;6249950;22;20019;-88
2021/01/24 04:47:19;;;;;;;18.85;9.70;;;2.80;99.90;;;;;;6250410;22;20330;-88
2021/01/24 04:49:45;;;;;;;17.88;9.63;;;2.80;99.90;;;;;;6250643;22;20090;-88
2021/01/24 04:52:11;;;;;;;15.95;9.57;;;2.80;99.90;;;;;;6250774;22;20003;-88
2021/01/24 04:54:38;;;;;;;18.38;9.70;;;2.80;99.90;;;;;;6251267;22;20000;-89
2021/01/24 04:57:03;;;;;;;15.90;9.52;;;2.80;99.90;;;;;;6250747;22;20026;-89
2021/01/24 04:59:29;;;;;;;15.55;9.52;;;2.80;99.90;;;;;;6250872;22;20004;-88
2021/01/24 05:01:55;;;;;;;18.40;9.30;;;2.80;99.90;;;;;;6277138;22;20019;-87
2021/01/24 05:04:22;;;;;;;17.80;10.52;;;2.80;99.90;;;;;;6250459;22;20008;-87
2021/01/24 05:06:48;;;;;;;15.45;9.43;;;2.80;99.90;;;;;;6279184;22;20000;-87
2021/01/24 05:09:17;;;;;;;13.38;8.20;;;2.80;99.90;;;;;;6252910;22;20060;-88
2021/01/24 05:11:49;;;;;;;15.65;8.65;;;2.80;99.90;;;;;;6279749;22;20006;-87
2021/01/24 05:14:18;;;;;;;14.98;9.23;;;2.80;99.90;;;;;;6252646;22;19996;-88
2021/01/24 05:16:46;;;;;;;17.15;8.48;;;2.80;99.90;;;;;;6252087;22;20050;-87
2021/01/24 05:19:14;;;;;;;15.35;9.10;;;2.80;99.90;;;;;;6252426;22;20031;-89
2021/01/24 05:21:40;;;;;;;16.83;10.55;;;2.80;99.90;;;;;;6253082;22;20000;-89
2021/01/24 05:24:11;;;;;;;18.05;10.40;;;2.80;99.90;;;;;;6279497;22;20321;-89
2021/01/24 05:26:38;;;;;;;15.68;9.15;;;2.80;99.90;;;;;;6252768;22;19996;-88
2021/01/24 05:29:04;;;;;;;16.85;9.65;;;2.80;99.90;;;;;;6253524;22;20007;-88
2021/01/24 05:31:30;;;;;;;15.65;8.93;;;2.70;99.90;;;;;;6252263;22;20390;-86
2021/01/24 05:33:57;;;;;;;16.42;9.18;;;2.70;99.90;;;;;;6252308;22;19999;-86
2021/01/24 05:36:24;;;;;;;15.80;9.07;;;2.70;99.90;;;;;;6252645;22;20075;-87
2021/01/24 05:38:53;;;;;;;17.10;9.02;;;2.70;99.90;;;;;;6279527;22;20350;-87
2021/01/24 05:41:19;;;;;;;14.98;8.70;;;2.70;99.90;;;;;;6252851;22;20034;-86
2021/01/24 05:43:45;;;;;;;14.35;9.30;;;2.60;99.90;;;;;;6251954;22;20006;-89
2021/01/24 05:46:11;;;;;;;14.70;8.43;;;2.60;99.90;;;;;;6252424;22;20000;-88
2021/01/24 05:48:46;;;;;;;14.63;8.13;;;2.60;99.90;;;;;;6252088;22;20054;-87
2021/01/24 05:51:14;;;;;;;13.00;7.47;;;2.60;99.90;;;;;;6252414;22;20086;-87
2021/01/24 05:53:48;;;;;;;14.43;8.25;;;2.60;99.90;;;;;;6251975;22;20004;-87
2021/01/24 05:56:19;;;;;;;13.13;7.35;;;2.60;99.90;;;;;;6251576;22;20060;-87
2021/01/24 05:58:51;;;;;;;12.98;7.55;;;2.60;99.90;;;;;;6278841;22;20473;-85
2021/01/24 06:01:18;;;;;;;11.15;7.10;;;2.60;99.90;;;;;;6251345;22;20011;-86
2021/01/24 06:03:45;;;;;;;14.45;7.50;;;2.60;99.90;;;;;;6278917;22;20395;-87
2021/01/24 06:06:11;;;;;;;14.73;7.68;;;2.60;99.90;;;;;;6251692;22;20007;-88
2021/01/24 06:08:37;;;;;;;13.07;7.65;;;2.60;99.90;;;;;;6279146;22;20000;-87
2021/01/24 06:11:03;;;;;;;14.48;8.52;;;2.60;99.90;;;;;;6252272;22;20368;-87
2021/01/24 06:13:31;;;;;;;14.30;7.30;;;2.60;99.90;;;;;;6252062;22;20000;-88
2021/01/24 06:16:07;;;;;;;12.85;6.95;;;2.60;99.90;;;;;;6278839;22;19999;-88
2021/01/24 06:18:41;;;;;;;11.13;6.53;;;2.60;99.90;;;;;;6252256;22;20347;-89
2021/01/24 06:21:11;;;;;;;12.45;6.30;;;2.60;99.90;;;;;;6252781;22;20004;-89
2021/01/24 06:23:50;;;;;;;11.35;5.72;;;2.50;99.90;;;;;;6252040;22;20008;-88
2021/01/24 06:26:18;;;;;;;10.30;5.07;;;2.50;99.90;;;;;;6252865;22;19996;-88
2021/01/24 06:28:47;;;;;;;10.73;6.30;;;2.50;99.90;;;;;;6252277;22;20006;-87
2021/01/24 06:31:14;;;;;;;10.13;5.90;;;2.50;99.90;;;;;;6279387;22;20086;-88
2021/01/24 06:33:43;;;;;;;10.65;6.25;;;2.50;99.90;;;;;;6252095;22;20295;-87
2021/01/24 06:36:09;;;;;;;9.13;5.35;;;2.50;99.90;;;;;;6251284;22;20004;-86
2021/01/24 06:38:40;;;;;;;12.82;6.03;;;2.40;99.90;;;;;;6251515;22;20383;-87
2021/01/24 06:41:10;;;;;;;9.73;5.55;;;2.40;99.90;;;;;;6251759;22;20000;-88
2021/01/24 06:43:51;;;;;;;10.48;6.20;;;2.40;99.90;;;;;;6251435;22;20012;-88
2021/01/24 06:46:28;;;;;;;11.60;5.93;;;2.40;99.90;;;;;;6251416;22;20374;-87
2021/01/24 06:48:54;;;;;;;9.25;5.53;;;2.30;99.90;;;;;;6251562;22;20074;-87
2021/01/24 06:51:38;;;;;;;9.05;4.93;;;2.30;99.90;;;;;;6251101;22;20079;-87
2021/01/24 06:54:27;;;;;;;9.60;5.30;;;2.30;99.90;;;;;;6250812;22;20311;-87
2021/01/24 06:56:52;;;;;;;10.55;5.57;;;2.30;99.90;;;;;;6255771;22;20011;-88
2021/01/24 06:59:29;;;;;;;10.38;5.32;;;2.40;99.90;;;;;;6251902;22;20008;-87
2021/01/24 07:02:32;;;;;;;9.55;5.38;;;2.40;99.90;;;;;;6251079;22;20038;-88
2021/01/24 07:05:11;;;;;;;10.27;5.57;;;2.40;99.90;;;;;;6251159;22;20011;-88
2021/01/24 07:07:41;;;;;;;10.38;5.78;;;2.30;99.90;;;;;;6278467;22;20057;-88
2021/01/24 07:10:09;;;;;;;9.27;5.50;;;2.30;99.90;;;;;;6251569;22;20058;-88
2021/01/24 07:12:40;;;;;;;10.07;5.63;;;2.30;99.90;;;;;;6251144;22;20000;-87
2021/01/24 07:15:11;;;;;;;11.25;6.32;;;2.40;99.90;;;;;;6251417;22;20083;-87
2021/01/24 07:17:37;;;;;;;12.45;6.50;;;2.40;99.90;;;;;;6251200;22;20000;-88
2021/01/24 07:20:05;;;;;;;11.00;6.35;;;2.40;99.90;;;;;;6251067;22;20004;-87
2021/01/24 07:22:31;;;;;;;12.50;6.10;;;2.40;99.90;;;;;;6251301;22;20004;-87
2021/01/24 07:24:57;;;;;;;11.07;5.63;;;2.30;99.90;;;;;;6251078;22;20081;-87
2021/01/24 07:27:26;;;;;;;12.80;7.13;;;2.30;99.90;;;;;;6251351;22;20390;-87
2021/01/24 07:29:52;;;;;;;11.60;6.47;;;2.20;99.90;;;;;;6250730;22;20026;-86
2021/01/24 07:32:24;;;;;;;10.98;5.90;;;2.20;99.90;;;;;;6251299;22;20004;-86
2021/01/24 07:34:54;;;;;;;9.95;5.80;;;2.20;99.90;;;;;;6251509;22;20004;-87
2021/01/24 07:37:21;;;;;;;11.05;5.68;;;2.20;99.90;;;;;;6251244;22;19999;-88
2021/01/24 07:39:49;;;;;;;10.00;5.38;;;2.10;99.90;;;;;;6251186;22;20085;-87
2021/01/24 07:42:15;;;;;;;10.20;4.97;;;2.20;99.90;;;;;;6251529;22;19999;-87
2021/01/24 07:44:42;;;;;;;9.07;5.60;;;2.10;99.90;;;;;;6250923;22;20061;-88
2021/01/24 07:47:09;;;;;;;8.60;5.15;;;2.10;99.90;;;;;;6251377;22;20000;-87
2021/01/24 07:49:35;;;;;;;8.50;5.00;;;2.10;99.90;;;;;;6257226;22;20067;-86
2021/01/24 07:52:05;;;;;;;9.65;5.43;;;2.20;99.90;;;;;;6257761;22;19995;-88
2021/01/24 07:54:31;;;;;;;9.65;4.95;;;2.20;99.90;;;;;;6259647;22;20004;-88
2021/01/24 07:56:57;;;;;;;10.73;5.90;;;2.20;99.90;;;;;;6255845;22;20000;-91
2021/01/24 07:59:22;;;;;;;9.75;5.72;;;2.10;99.90;;;;;;6259908;22;20012;-87
2021/01/24 08:01:48;;;;;;;9.43;5.20;;;2.10;99.90;;;;;;6252303;22;20023;-89
2021/01/24 08:04:14;;;;;;;9.20;5.35;;;2.20;99.90;;;;;;6250677;22;20094;-89
2021/01/24 08:06:40;;;;;;;12.38;6.25;;;2.20;99.90;;;;;;6249449;22;19999;-89
2021/01/24 08:09:07;;;;;;;11.65;6.40;;;2.20;99.90;;;;;;6249710;22;20053;-88
2021/01/24 08:11:33;;;;;;;12.20;6.45;;;2.10;99.90;;;;;;6249110;22;20075;-88
2021/01/24 08:13:59;;;;;;;14.95;7.28;;;2.10;99.90;;;;;;6250139;22;20026;-86
2021/01/24 08:16:33;;;;;;;14.10;7.50;;;2.10;99.90;;;;;;6248509;22;20100;-88
2021/01/24 08:19:01;;;;;;;13.25;6.93;;;2.10;99.90;;;;;;6252367;22;20082;-90
2021/01/24 08:21:28;;;;;;;13.18;7.40;;;2.10;99.90;;;;;;6276494;22;19999;-91
2021/01/24 08:23:54;;;;;;;13.23;7.35;;;2.10;99.90;;;;;;6249719;22;20409;-91
2021/01/24 08:26:21;;;;;;;9.23;6.25;;;2.10;99.90;;;;;;6249714;22;20025;-89
2021/01/24 08:28:48;;;;;;;10.85;6.22;;;2.10;99.90;;;;;;6250981;22;20014;-91
2021/01/24 08:31:19;;;;;;;10.27;5.65;;;2.20;99.90;;;;;;6278292;22;20014;-90
2021/01/24 08:33:46;;;;;;;10.82;5.68;;;2.10;99.90;;;;;;6277028;22;20003;-87
2021/01/24 08:36:14;;;;;;;10.23;5.88;;;2.10;99.90;;;;;;6260057;22;20007;-87
2021/01/24 08:38:41;;;;;;;8.25;5.70;;;2.10;99.90;;;;;;6259478;22;20004;-87
2021/01/24 08:41:07;;;;;;;8.57;5.00;;;2.10;99.90;;;;;;6260918;22;20000;-88
2021/01/24 08:43:33;;;;;;;9.50;5.13;;;2.10;99.90;;;;;;6282797;22;20405;-89
2021/01/24 08:46:18;;;;;;;8.93;4.93;;;2.10;99.90;;;;;;6278726;22;20007;-91
2021/01/24 08:48:43;;;;;;;8.13;4.90;;;2.20;99.90;;;;;;6251234;22;20000;-91
2021/01/24 08:51:09;;;;;;;9.68;5.18;;;2.20;99.90;;;;;;6250417;22;20011;-90
2021/01/24 08:53:35;;;;;;;9.57;4.97;;;2.20;99.90;;;;;;6250857;22;20007;-89
2021/01/24 08:56:01;;;;;;;8.35;4.88;;;2.20;99.90;;;;;;6251174;22;19999;-92
2021/01/24 08:58:28;;;;;;;9.07;5.22;;;2.20;99.90;;;;;;6251221;22;20000;-91
2021/01/24 09:01:09;;;;;;;8.73;4.85;;;2.20;99.90;;;;;;6250692;22;20020;-90
2021/01/24 09:03:34;;;;;;;7.28;4.40;;;2.30;99.90;;;;;;6249972;22;20460;-91
2021/01/24 09:06:19;;;;;;;7.63;4.10;;;2.30;99.90;;;;;;6249969;22;20000;-88
2021/01/24 09:08:52;;;;;;;6.95;4.22;;;2.40;99.90;;;;;;6249742;22;20010;-89
2021/01/24 09:11:18;;;;;;;9.70;4.82;;;2.40;99.90;;;;;;6250163;22;20003;-89
2021/01/24 09:13:44;;;;;;;5.97;4.15;;;2.50;99.90;;;;;;6276347;22;20057;-89
2021/01/24 09:16:10;;;;;;;5.15;3.58;;;2.60;99.90;;;;;;6249260;22;20008;-88
2021/01/24 09:18:36;;;;;;;5.38;3.35;;;3.10;99.90;;;;;;6247989;22;20004;-88
2021/01/24 09:21:03;;;;;;;6.65;3.47;;;3.70;99.90;;;;;;6272656;22;20007;-89
2021/01/24 09:23:30;;;;;;;7.55;2.83;;;3.90;99.90;;;;;;6247521;22;20141;-90
2021/01/24 09:25:56;;;;;;;5.03;2.88;;;4.40;99.90;;;;;;6249209;22;20131;-90
2021/01/24 09:28:23;;;;;;;3.80;2.40;;;5.40;99.90;;;;;;6248547;22;20414;-91
2021/01/24 09:30:48;;;;;;;4.40;2.28;;;6.30;99.90;;;;;;6248685;22;20015;-90
2021/01/24 09:33:14;;;;;;;4.45;2.47;;;7.00;99.90;;;;;;6249317;22;20381;-93
2021/01/24 09:35:40;;;;;;;2.83;1.58;;;7.60;99.90;;;;;;6248401;22;20006;-88
2021/01/24 09:38:05;;;;;;;2.83;1.70;;;8.30;99.90;;;;;;6248368;22;20004;-89
2021/01/24 09:40:31;;;;;;;3.63;1.58;;;9.10;99.90;;;;;;6248598;22;20086;-91
2021/01/24 09:42:57;;;;;;;2.65;1.65;;;9.70;99.90;;;;;;6276302;22;20043;-90
2021/01/24 09:45:23;;;;;;;2.40;1.27;;;10.00;99.90;;;;;;6249329;22;20012;-90
2021/01/24 09:47:50;;;;;;;4.68;1.48;;;10.70;99.90;;;;;;6249102;22;20496;-90
2021/01/24 09:50:18;;;;;;;3.17;1.45;;;11.30;99.90;;;;;;6249731;22;20007;-92
2021/01/24 09:52:44;;;;;;;3.88;1.35;;;11.50;99.90;;;;;;6250918;22;20049;-89
2021/01/24 09:55:11;;;;;;;2.58;1.48;;;11.70;99.90;;;;;;6250998;22;20030;-90
2021/01/24 09:57:37;;;;;;;3.55;1.48;;;11.90;99.90;;;;;;6249536;22;20010;-89
2021/01/24 10:00:05;;;;;;;3.00;1.30;;;12.20;99.90;;;;;;6249574;22;20019;-89
2021/01/24 10:02:31;;;;;;;3.38;1.70;;;12.40;99.90;;;;;;6279220;22;20022;-89
2021/01/24 10:04:56;;;;;;;3.38;1.60;;;12.80;98.20;;;;;;6247951;22;20011;-87
2021/01/24 10:07:22;;;;;;;3.00;1.40;;;12.70;98.20;;;;;;6248071;22;20008;-88
2021/01/24 10:09:48;;;;;;;4.20;1.85;;;12.70;98.40;;;;;;6248206;22;20007;-91
2021/01/24 10:12:13;;;;;;;3.50;1.50;;;12.50;95.90;;;;;;6252919;22;20078;-91
2021/01/24 10:14:39;;;;;;;3.10;1.50;;;12.30;96.30;;;;;;6249250;22;20007;-87
2021/01/24 10:17:05;;;;;;;2.58;1.48;;;12.40;96.30;;;;;;6251788;22;20026;-88
2021/01/24 10:19:30;;;;;;;2.58;1.50;;;12.70;96.20;;;;;;6251029;22;20014;-88
2021/01/24 10:21:56;;;;;;;2.63;1.17;;;13.00;96.30;;;;;;6255197;22;20016;-91
2021/01/24 10:24:21;;;;;;;2.65;1.50;;;13.30;95.90;;;;;;6251240;22;20422;-89
2021/01/24 10:26:47;;;;;;;2.78;1.10;;;13.50;95.00;;;;;;6251162;22;20008;-90
2021/01/24 10:29:12;;;;;;;3.40;1.45;;;13.40;93.70;;;;;;6277343;22;20043;-89
2021/01/24 10:31:38;;;;;;;3.08;1.25;;;13.30;93.00;;;;;;6277132;22;20035;-87
2021/01/24 10:34:03;;;;;;;2.25;1.13;;;13.10;92.00;;;;;;6250056;22;20007;-91
2021/01/24 10:36:29;;;;;;;2.85;1.05;;;12.90;91.80;;;;;;6250334;22;20552;-87
2021/01/24 10:38:55;;;;;;;3.15;1.30;;;12.90;91.00;;;;;;6250023;22;20326;-88
2021/01/24 10:41:20;;;;;;;3.58;1.13;;;13.00;92.10;;;;;;6278036;22;20079;-90
2021/01/24 10:43:46;;;;;;;4.13;1.10;;;13.30;90.10;;;;;;6250205;22;20008;-88
2021/01/24 10:46:11;;;;;;;4.50;1.48;;;13.30;88.70;;;;;;6277720;22;20004;-89
2021/01/24 10:48:39;;;;;;;4.03;0.80;;;13.10;87.60;;;;;;6250447;22;20393;-91
2021/01/24 10:51:06;;;;;;;1.73;0.70;;;13.00;86.60;;;;;;6250648;22;20096;-89
2021/01/24 10:53:33;;;;;;;2.80;1.00;;;12.90;89.10;;;;;;6250182;22;20015;-88
2021/01/24 10:55:59;;;;;;;2.22;0.93;;;12.70;86.10;;;;;;6249666;22;20003;-88
2021/01/24 10:58:25;;;;;;;2.78;0.88;;;12.50;87.70;;;;;;6248519;22;20003;-88
2021/01/24 11:00:50;;;;;;;3.22;0.80;;;12.80;89.20;;;;;;6243983;23;20434;-90
2021/01/24 11:03:16;;;;;;;2.50;0.70;;;13.40;89.80;;;;;;6238642;23;20425;-87
2021/01/24 11:05:42;;;;;;;2.65;0.85;;;13.80;88.80;;;;;;6241653;23;20028;-90
2021/01/24 11:08:08;;;;;;;1.70;0.60;;;13.90;89.20;;;;;;6242423;23;20001;-89
2021/01/24 11:10:33;;;;;;;3.35;1.13;;;14.10;88.30;;;;;;6242867;23;20000;-90
2021/01/24 11:12:59;;;;;;;2.35;0.80;;;14.10;86.30;;;;;;6245438;22;20011;-92
2021/01/24 11:15:27;;;;;;;4.30;0.93;;;14.20;87.80;;;;;;6246047;22;20015;-89
2021/01/24 11:17:53;;;;;;;3.67;0.90;;;14.10;86.20;;;;;;6245742;23;20112;-91
2021/01/24 11:20:18;;;;;;;3.88;0.98;;;13.70;82.30;;;;;;6245780;23;20101;-91
2021/01/24 11:22:44;;;;;;;2.30;0.80;;;13.00;83.60;;;;;;6247554;23;20423;-92
2021/01/24 11:25:11;;;;;;;2.17;0.80;;;11.90;87.70;;;;;;6246129;23;20091;-91
2021/01/24 11:27:37;;;;;;;2.50;0.82;;;11.80;90.80;;;;;;6243678;23;20110;-91
2021/01/24 11:30:08;;;;;;;4.00;0.77;;;12.10;89.50;;;;;;6245145;23;20016;-92
2021/01/24 11:32:40;;;;;;;3.08;0.77;;;12.20;89.80;;;;;;6245791;22;20004;-91
2021/01/24 11:35:11;;;;;;;1.85;0.75;;;12.50;88.90;;;;;;6246373;23;20028;-92
2021/01/24 11:37:37;;;;;;;3.20;0.85;;;12.90;88.80;;;;;;6247434;23;20008;-89
2021/01/24 11:40:09;;;;;;;1.83;0.80;;;13.30;87.30;;;;;;6248557;23;20064;-92
2021/01/24 11:42:35;;;;;;;2.50;0.60;;;13.60;87.50;;;;;;6247010;23;20010;-93
2021/01/24 11:45:01;;;;;;;5.32;1.08;;;13.90;86.20;;;;;;6247338;23;20035;-92
2021/01/24 11:47:27;;;;;;;2.40;0.80;;;14.60;83.60;;;;;;6245799;23;20058;-91
2021/01/24 11:49:54;;;;;;;5.63;1.17;;;14.80;83.40;;;;;;6248394;23;20004;-92
2021/01/24 11:52:19;;;;;;;2.63;1.00;;;15.00;82.40;;;;;;6248335;22;20000;-91
2021/01/24 11:54:45;;;;;;;3.35;0.90;;;14.90;83.20;;;;;;6247545;23;20050;-92
2021/01/24 11:57:10;;;;;;;3.97;0.90;;;15.10;83.00;;;;;;6252630;22;20075;-91
2021/01/24 11:59:36;;;;;;;3.42;1.02;;;15.00;79.60;;;;;;6250427;22;20003;-90
2021/01/24 12:02:02;;;;;;;3.38;1.20;;;14.80;82.00;;;;;;6249164;22;20330;-92
2021/01/24 12:04:27;;;;;;;4.07;1.10;;;14.80;82.00;;;;;;6275803;22;20007;-91
2021/01/24 12:06:53;;;;;;;2.08;0.88;;;14.90;81.10;;;;;;6249400;22;20058;-93
2021/01/24 12:09:18;;;;;;;4.47;1.00;;;15.10;82.40;;;;;;6250687;22;19999;-92
2021/01/24 12:11:44;;;;;;;3.58;0.95;;;14.40;83.30;;;;;;6250480;22;20329;-91
2021/01/24 12:14:42;;;;;;;4.90;1.25;;;13.50;84.50;;;;;;6251679;22;20007;-93
2021/01/24 12:17:07;;;;;;;7.32;2.25;;;12.60;85.30;;;;;;6228232;22;20598;-92
2021/01/24 12:19:33;;;;;;;5.38;1.55;;;11.10;87.90;;;;;;6251066;22;20007;-92
2021/01/24 12:21:58;;;;;;;3.58;1.50;;;10.40;91.00;;;;;;6249550;22;20022;-90
2021/01/24 12:24:24;;;;;;;6.30;1.83;;;9.60;92.00;;;;;;6276948;22;20003;-91
2021/01/24 12:26:50;;;;;;;6.03;1.77;;;9.00;93.50;;;;;;6249971;22;20635;-89
2021/01/24 12:29:15;;;;;;;7.07;1.70;;;8.50;96.10;;;;;;6249849;22;20057;-91
2021/01/24 12:31:41;;;;;;;3.67;1.83;;;8.10;97.00;;;;;;6250109;22;20034;-91
2021/01/24 12:34:06;;;;;;;5.65;1.67;;;7.80;98.50;;;;;;6249306;22;20015;-91
2021/01/24 12:36:32;;;;;;;6.88;2.13;;;7.50;99.60;;;;;;6250091;22;20014;-92
2021/01/24 12:38:58;;;;;;;4.22;1.35;;;7.30;99.90;;;;;;6249237;22;19999;-91
2021/01/24 12:41:23;;;;;;;5.57;2.05;;;7.30;99.90;;;;;;6249415;22;20063;-90
2021/01/24 12:43:49;;;;;;;6.22;2.17;;;7.30;99.90;;;;;;6248986;22;20007;-87
2021/01/24 12:46:15;;;;;;;8.23;2.40;;;7.40;99.90;;;;;;6248907;22;20030;-91
2021/01/24 12:48:43;;;;;;;11.23;2.60;;;7.40;99.90;;;;;;6250664;22;20003;-93
2021/01/24 12:51:09;;;;;;;8.50;2.88;;;7.50;99.90;;;;;;6249624;22;20006;-91